This demonstration page uses our WeatherBlox Daily Observations layout. Learn more.

38.89511, -77.03637

Hourly Observations for February 1, 2015

Temp ( °F °C ) Dew Point ( °F °C ) Humidity (%) Winds ( mph kmh ) Pressure ( in mb ) Visibility ( mi km ) Precip ( " mm )
12:52 am 00:52 Mostly Cloudy 30 -1 18 -8 59 59 Calm 30.3 1026 10 16.09344 0 0
1:52 am 01:52 Mostly Cloudy 28 -2 18 -8 64 64 Calm 30.3 1026 10 16.09344 0 0
2:52 am 02:52 Cloudy 27 -3 19 -7 74 74 S 5 7 30.3 1026 10 16.09344 0 0
3:52 am 03:52 Cloudy 27 -3 18 -8 69 69 SSW 3 6 30.3 1026 10 16.09344 0 0
4:52 am 04:52 Cloudy 28 -2 19 -7 69 69 S 6 9 30.27 1025 10 16.09344 0 0
5:52 am 05:52 Cloudy 28 -2 19 -7 69 69 SW 3 6 30.3 1026 10 16.09344 0 0
6:52 am 06:52 Cloudy 30 -1 19 -7 64 64 SSW 3 6 30.3 1026 10 16.09344 0 0
7:52 am 07:52 Cloudy 32 0 18 -8 55 55 S 3 6 30.3 1026 9 14.484096 0 0
8:52 am 08:52 Cloudy 34 1 18 -8 51 51 S 3 6 30.3 1026 10 16.09344 0 0
9:52 am 09:52 Cloudy 36 2 19 -7 52 52 S 6 9 30.27 1025 10 16.09344 0 0
10:52 am 10:52 Cloudy 36 2 19 -7 52 52 S 6 9 30.27 1025 10 16.09344 0 0
11:52 am 11:52 Cloudy 37 3 18 -8 45 45 S 7 11 30.24 1024 10 16.09344 0 0
12:52 pm 12:52 Cloudy 39 4 18 -8 42 42 SSE 6 9 30.21 1023 10 16.09344 0 0
1:52 pm 13:52 Cloudy 41 5 16 -9 36 36 S 6 9 30.15 1021 10 16.09344 0 0
2:52 pm 14:52 Cloudy 43 6 16 -9 34 34 S 8 13 30.12 1020 10 16.09344 0 0
3:52 pm 15:52 Cloudy 43 6 19 -7 39 39 S 5 7 30.12 1020 10 16.09344 0 0
4:52 pm 16:52 Cloudy 43 6 19 -7 39 39 SE 3 6 30.09 1019 10 16.09344 0 0
5:52 pm 17:52 Cloudy 43 6 18 -8 36 36 SSE 5 7 30.09 1019 10 16.09344 0 0
6:52 pm 18:52 Clear 34 1 10 -12 38 38 Calm 30.3 1026 10 16.09344 0 0
7:52 pm 19:52 Cloudy 41 5 21 -6 45 45 SE 5 7 30 1016 10 16.09344 0 0
8:52 pm 20:52 Cloudy 39 4 25 -4 56 56 SE 5 7 29.97 1015 10 16.09344 0 0
9:22 pm 21:22 Cloudy with Light Rain 39 4 25 -4 56 56 ESE 3 6 29.94 1014 10 16.09344 0 0
9:52 pm 21:52 Cloudy with Light Rain 39 4 27 -3 61 61 Calm 29.94 1014 10 16.09344 0.001 0.001
10:20 pm 22:20 Cloudy with Light Snow 37 3 27 -3 65 65 ESE 3 6 29.91 1013 6 9.656064 0 0
10:52 pm 22:52 Cloudy with Light Rain 37 3 28 -2 70 70 Calm 29.88 1012 7 11.265408 0.02 0.508
11:52 pm 23:52 Cloudy with Light Rain 37 3 30 -1 75 75 N 3 6 29.83 1010 10 16.09344 0.02 0.508

Powered by AerisWeather